This is the latest recevied weather packets stored in our database for station/object XE2OR-10. If no packets are shown the sender has not sent any weather packets the latest 10 day(s).
| Time | Temp. | Humidity | Pressure | Rain* | Wind** | Luminosity | Snow |
|---|---|---|---|---|---|---|---|
| 1777921729 | 30° C | 63% | 1016 hPa | 0 mm | - | 794 W/m² | - |
| 1777921429 | 28.33° C | 65% | 1016.1 hPa | 0 mm | - | 767 W/m² | - |
| 1777921129 | 28.89° C | 64% | 1016.3 hPa | 0 mm | - | 602 W/m² | - |
| 1777920833 | 29.44° C | 64% | 1016.4 hPa | 0 mm | - | 720 W/m² | - |
| 1777920529 | 28.89° C | 63% | 1016.6 hPa | 0 mm | - | 654 W/m² | - |
| 1777920233 | 28.33° C | 66% | 1016.5 hPa | 0 mm | - | 802 W/m² | - |
| 1777919929 | 28.33° C | 66% | 1016.3 hPa | 0 mm | - | 771 W/m² | - |
| 1777919629 | 28.89° C | 65% | 1016.4 hPa | 0 mm | - | 731 W/m² | - |
| 1777919329 | 28.89° C | 64% | 1016.6 hPa | 0 mm | - | 736 W/m² | - |
| 1777919033 | 28.33° C | 67% | 1016.9 hPa | 0 mm | - | 740 W/m² | - |
| 1777918729 | 27.78° C | 68% | 1016.8 hPa | 0 mm | - | 627 W/m² | - |
| 1777918433 | 27.78° C | 68% | 1016.8 hPa | 0 mm | - | 693 W/m² | - |
| 1777918129 | 27.78° C | 69% | 1016.8 hPa | 0 mm | - | 664 W/m² | - |
| 1777917829 | 28.33° C | 67% | 1017 hPa | 0 mm | - | 483 W/m² | - |
| 1777917529 | 28.89° C | 66% | 1017 hPa | 0 mm | - | 663 W/m² | - |
| 1777917232 | 28.33° C | 68% | 1017 hPa | 0 mm | - | 727 W/m² | - |
| 1777916929 | 28.33° C | 68% | 1017.2 hPa | 0 mm | - | 678 W/m² | - |
| 1777916632 | 27.78° C | 67% | 1017 hPa | 0 mm | - | 387 W/m² | - |
| 1777916329 | 28.33° C | 66% | 1017.4 hPa | 0 mm | - | 226 W/m² | - |
| 1777916029 | 27.22° C | 68% | 1017.2 hPa | 0 mm | - | 453 W/m² | - |
| 1777915729 | 26.67° C | 71% | 1017.4 hPa | 0 mm | - | 605 W/m² | - |
| 1777915432 | 27.78° C | 70% | 1017.4 hPa | 0 mm | - | 380 W/m² | - |
| 1777915129 | 27.78° C | 70% | 1017.5 hPa | 0 mm | - | 560 W/m² | - |
| 1777914833 | 26.67° C | 71% | 1017.2 hPa | 0 mm | - | 465 W/m² | - |
| 1777914529 | 26.67° C | 70% | 1017.5 hPa | 0 mm | - | 461 W/m² | - |
* Rain latest hour (hover to see other rain measurements)
** Current wind speed in m/s (hover to see current wind gust speed)